Delhi, India
Current Conditions -  °F | °C
As of 1:00 PM on Monday 22 Dec 2014 (Local Time) from VIDP Reporting Station
Light Fog Light Fog  
Wind Chill: 59°   Ceiling: Unl
Heat Index: 59°   Visibility: 0.5mi
Dew Point: 55°   Wind: 5mph
Humidity: 88%   Direction: 120°ESE
Pressure: 30"   Gusts: NA
Location:  28.66°N, 77.23°E
Report Text: VIDP 220800Z 12004KT 0800 R28/1300 R29/0800 MIFG NSC 15/13 Q1016 NOSIG
Loading
Personal Weather Stations






























Interactive Weather Map New forecast layout! Learn more

10-Day Weather Forecast

Advertisements
Track Severe Weather on mobile